Logs | Manuel Carbonell, Gallegos de Arganan, ESP - IN60po
Paging Controls
Log ID Date UTC KHz ID Location S/P ITU Region GSQ LSB USB Sec. Fmt. Power KM Miles Deg
1636001 2019-04-21 0340 375 CHO Chociwel POL eu JO73pl 2181 1355 41
1699844 2019-04-21 0340 332 YFM La Grande 4 QC CAN na FO33dr 2000 5065 3147 310
1599378 2019-04-21 0320 392 ML Charlevoix QC CAN na FN47uo 500 4992 3102 301
1603173 2019-04-21 0315 391 DDP San Juan / Dorado / Luiz Munoz Marin Intl PR PTR ca FK68tl 2000 6144 3817 265
1636000 2019-04-21 0305 400 ZT Agip C97 LBY af KL08wt 2905 1805 107
1617538 2019-04-21 0245 240 TIR Tirios (PA) BRA sa GJ22af 6519 4051 242
1635999 2019-04-21 0245 317 OZ Kardla EST eu KO18kw 2900 1802 35
1599377 2019-04-21 0240 366 YMW Maniwaki QC CAN na FN26ae 500 5450 3386 300
1635998 2019-04-21 0240 386 O Kardla EST eu KO18kw 2900 1802 35
1617537 2019-04-21 0235 362 GND 'Port Salines' Grand Anse GRD ca FK92ca 150 6216 3862 255
1599375 2019-04-21 0225 396 JC Rigolet NL CAN na GO04se 500 4070 2529 309
1599376 2019-04-21 0225 378 HO Hopedale NL CAN na FO95vk 4182 2598 311
1599374 2019-04-21 0220 278 NM Matagami QC CAN na FN19dr 400 5446 3384 305
1599371 2019-04-21 0215 280 QX Gander NL CAN na GN28px 1000 3832 2381 300
1599372 2019-04-21 0215 323 TAB Crown Point TRD ca FK91nd 6206 3856 254
1599373 2019-04-21 0215 356 AY St Anthony NL CAN na GO11wj 25 3918 2434 304
1699843 2019-04-21 0215 413.5 DLS Berlin / Tempelhof / Lubars DEU eu JO62qo 50 2021 1256 41
1599369 2019-04-21 0210 340 YY Mont Joli QC CAN na FN58un 500 4821 2996 302
1599370 2019-04-21 0210 350 DF Deer Lake NL CAN na GN19ge 1000 4030 2504 301
1617536 2019-04-21 0205 296 MG Ljubljana SVN eu JN76ge 1819 1130 62
1599368 2019-04-21 0200 360 PN Port-Menier / Ile Anticosti QC CAN na FN79tu 500 4514 2805 303
1612903 2019-04-21 0155 508 Z Zilina / Hlinik SVK eu JN99hf 2199 1366 55
1622278 2019-04-21 0155 326 FC Fredericton NB CAN na FN65qw 1600 4772 2965 297
1635997 2019-04-21 0150 488 NPR Tomaszow-Mazowiecki / Porter POL eu KO01bn 2381 1480 50
1617534 2019-04-21 0145 220 TUI Tucurui (PA) BRA sa GI56df 1000 6588 4093 232
1617535 2019-04-21 0145 416 POZ Beograd / Pozarevac SRB eu KN04no 40 2309 1435 69
1599367 2019-04-21 0135 276 YHR Chevery QC CAN na GO00el 500 4169 2591 303
1617533 2019-04-21 0135 414 GR Dubrovnik / Gruda HRV eu JN92dm 2083 1294 75
1603172 2019-04-21 0125 342 LL Leirin / Fagernes NOR eu JP41pa 2517 1564 20
1767605 2019-04-21 0125 268 ZAR Zarzaitine ALG af JL48tb 2041 1268 128
1767606 2019-04-21 0125 318 KLP Dubrovnik / Kolocep HRV eu JN92aq 50 2062 1281 75
1767607 2019-04-21 0125 331 SC Santa Cruz Das Flores AZR eu HM49lg 2073 1288 273
1767608 2019-04-21 0125 340 BLK Banja Luka BIH eu JN85pc 40 2011 1250 67
1767609 2019-04-21 0125 381 TEST UNID XUU xx
1767610 2019-04-21 0125 403 KEK Kerkyra / Ioannis Kapodistrias GRC eu JM99wo 15 2255 1401 84
1767611 2019-04-21 0125 408 BRK Wien / Schwechat / Bruck AUT eu JN88ib 2028 1260 58
1767612 2019-04-21 0125 418 ORA Oradea ROU eu KN07xc 2394 1487 62
1767613 2019-04-21 0125 425 DNC Mostar BIH eu JN83wd 100 2047 1272 73
1599366 2019-04-21 0120 351 OV Visby SWE eu JO97er 2607 1620 34
1599364 2019-04-21 0115 329 FOF Fort De France MRT ca FK94lo 5967 3708 257
1599365 2019-04-21 0115 360 LA Kraljevo SRB eu KN03gu 2262 1405 71
1617532 2019-04-21 0110 369 ZDX Coolidge Saint Johns ATG ca FK97cd 700 5851 3635 260
1617531 2019-04-21 0105 305 BNE Hewanorra LCA ca FK93mr 100 6023 3742 256
1617530 2019-04-21 0100 385 NWT Leczyca POL eu JO91ox 2339 1454 48
1699839 2019-04-21 0050 291 KZN Kozani / Filippos GRC eu KN00wg 2408 1496 81
1699840 2019-04-21 0050 330 OA Samah / Warehouse 59 LBY af JL98mc 2727 1694 112
1699841 2019-04-21 0050 351 ALP Alexandropoulis GRC eu KN20xu 2736 1700 78
1699842 2019-04-21 0050 420 SR Uzice / Ponikve SRB eu JN93vv 2202 1368 71
1699838 2019-04-21 0045 362 LSA Larissa GRC eu KM19fp 2471 1535 82
1699835 2019-04-21 0020 345 THS Thessaloniki / Makedonia GRC eu KN10lo 2492 1549 80
1699836 2019-04-21 0020 425 BUK Ankara / Cubuk TUR as KN60nf 3343 2077 77
1699837 2019-04-21 0020 425 KE Kosice SVK eu KN08oo 2366 1470 58
1599363 2019-04-21 0010 220 BX Blanc Sablon / Lourdes de Blanc Sablon QC CAN na GO11jk 2000 3993 2481 304
1767604 2019-04-21 0005 343 DKA Dhekelia CYP as KM64ux 3574 2221 86
1617529 2019-04-20 2345 440 FEL El Feel LBY af JL66ab 2367 1471 127
1622277 2019-04-20 2255 423 ZO Nis / Zitoradja SRB eu KN03ue 2358 1465 73
1622276 2019-04-20 2140 468 VTN Kraljevo / Vitanovac SRB eu KN03jr 50 2282 1418 72
1622275 2019-04-20 2115 300 PV Novi Sad / Cenej / Petrovaradin SRB eu JN95rd 2181 1355 67
1617528 2019-04-20 2105 403 MB Marsa Brega LBY af JM90sk 2617 1626 107
1622274 2019-04-20 2105 495 PA Pancevo SRB eu KN04hv 50 2271 1411 68
1617527 2019-04-20 2040 317 KFR Kufra LBY af KL14pf 3327 2067 113
1617526 2019-04-20 2025 392 LAB Labraq / El Beida LBY af KM02xs 2686 1669 99
1617525 2019-04-20 2005 390 OV Nafoora M4 LBY af KL09sf 2852 1772 107
1603210 2019-04-20 1730 8497.8 L Saint Petersburg RUS eu
1767603 2019-04-20 0150 257 BS Benghazi / Benina LBY af KM02da 2588 1608 103
1767602 2019-04-20 0130 370 UMH Uromiyeh IRN as LM27mp 4411 2741 76
1607798 2019-04-19 2225 443 AL UNID XUE xx 6624 4116
1603209 2019-04-19 0855 16331.9 S Severomorsk RUS eu
1635996 2019-04-19 0340 337 MY Myggenaes FRO eu IP62ec 2391 1486 358
1607797 2019-04-19 0250 422 OSJ Osijek HRV eu JN95lk 100 2144 1332 66
1607796 2019-04-19 0220 420 FP Tenerife Norte / Los Rodeos CNR af IL18tl 1610 1001 216
1612902 2019-04-19 0210 521 BSW Bucuresti / Baneasa ROU eu KN24xl 2692 1673 69
1622273 2019-04-19 0210 372 ODR Kristiansand / Kjevik / Odderoy NOR eu JO38xd 2210 1373 23
1733722 2019-04-19 0205 328 VJ Stauning DNK eu JO45fx 2035 1264 27
1605260 2019-04-19 0145 350 DWN Devnya For Varna BUL eu KN33tf 2836 1762 72
1605261 2019-04-19 0145 517 ARD Arad ROU eu KN06ne 2319 1441 65
1622272 2019-04-19 0140 348 SVR Sagvar HNG eu JN96bt 2101 1306 62
1635995 2019-04-19 0140 370.5 LB Angelholm / Barkakra SWE eu JO66ji 2249 1397 32
1733720 2019-04-19 0130 369 MNE Munchen DEU eu JN58ui 25 1690 1050 53
1733721 2019-04-19 0130 374 BKS Bekes HNG eu KN06mt 2321 1442 63
1617524 2019-04-19 0125 360 O Oradea ROU eu KN07wb 2387 1483 62
1687149 2019-04-19 0115 205 MXN Maxaranguape BRA sa HI24fo 5900 3666 216
1687150 2019-04-19 0115 267 CNZ Marrakech / Menara MRC af IM61ao 1007 626 186
1687151 2019-04-19 0115 311 CEL Celle DEU eu JO52ao 25 1840 1143 37
1687152 2019-04-19 0115 312 DAN Danilvograd For Podgorica MNE eu JN92nn 2151 1337 75
1687153 2019-04-19 0115 316 GZP Gazipasa TUR as KM66dh 3401 2113 85
1687154 2019-04-19 0115 320 JPS Joao Pessoa (PB) BRA sa HI22mu 100 6045 3756 215
1687155 2019-04-19 0115 320 SOC UNID XUU xx
1687156 2019-04-19 0115 323 GT Hamburg / North DEU eu JO43xr 25 1918 1192 34
1687157 2019-04-19 0115 327 LNZ Linz / Horsching AUT eu JN78df 1863 1157 55
1687158 2019-04-19 0115 327 OST Roma / Ostia (RM) ITA eu JN61ct 1585 985 78
1687159 2019-04-19 0115 328 PHA Pafos CYP as KM64fr 3479 2162 88
1687160 2019-04-19 0115 330 ML Kraljevo SRB eu KN03hs 2269 1410 72
1687161 2019-04-19 0115 331 GRT Grottaglie (TA) ITA eu JN80rk 25 2036 1265 82
1687162 2019-04-19 0115 334 POY Paris / Orly FRA eu JN18er 1152 716 35
1687163 2019-04-19 0115 338 TIM Timisoara ROU eu KN05ol 2320 1441 67
1687164 2019-04-19 0115 342 RG Meknes / Bassatine MRC af IM73hv 755 469 170
1687165 2019-04-19 0115 345 TAZ Tivat MNE eu JN92jg 50 2126 1321 76
1687166 2019-04-19 0115 345.5 CF Caslav / Chotusice / Centograf CZE eu JN79rv 2008 1248 51
1687167 2019-04-19 0115 350.5 ROT Rotterdam HOL eu JO21gv 15 1521 945 30
1687168 2019-04-19 0115 352 LAA Niederrhein DEU eu JO31co 45 1572 977 34
1687169 2019-04-19 0115 362 DNZ Dasht-e-Naz / Sari IRN as LM66oq 5120 3181 74
1687170 2019-04-19 0115 362.5 SND Southend-On-Sea ENG eu JO01in 25 1344 835 22
1687171 2019-04-19 0115 368 EDR Edremit / Korzef TUR as KM39mn 2856 1774 81
1687172 2019-04-19 0115 372 CE Osijek / Cepin HRV eu JN95gm 50 2113 1313 66
1687173 2019-04-19 0115 374 KFT Klagenfurt AUT eu JN76go 1829 1137 61
1687174 2019-04-19 0115 380 KN Beograd / Krnjesevci SRB eu KN04bv 2231 1386 68
1687175 2019-04-19 0115 381 SIB Sibiu / Turnisor ROU eu KN25bs 2548 1583 66
1687176 2019-04-19 0115 390 VAL Valjevo SRB eu JN94wh 2209 1373 70
1687177 2019-04-19 0115 398 LRN Lorquin / Xouaxange FRA eu JN38lq 1402 871 45
1687178 2019-04-19 0115 401 BPL Bari / Palese (BA) ITA eu JN81gc 1950 1212 80
1687179 2019-04-19 0115 405 JST Nis / Justic SRB eu KN03tk 50 2350 1460 72
1687180 2019-04-19 0115 410 BOR Seven Borealis / Subsea 7 XOE iw 18
1687181 2019-04-19 0115 412 PP Pecs / Pogany HNG eu JN96ca 2094 1301 64
1687182 2019-04-19 0115 418 ZW Zeltweg AUT eu JN77je 50 1864 1158 59
1687183 2019-04-19 0115 424 PHG Phalsbourg / Bourscheid FRA eu JN38os 1423 884 45
1687184 2019-04-19 0115 485 IA Indija SRB eu KN05ab 60 2226 1383 68
1687185 2019-04-19 0115 489 NK Poznan / Krzesiny / Kamera POL eu JO82lh 2215 1376 46
1687186 2019-04-19 0115 520 B Bacau ROU eu KN36kn 2762 1716 64
1733718 2019-04-19 0115 328.5 EGT Londonderry / Eglinton NIR eu IO65kb 1608 999 359
1733719 2019-04-19 0115 370 GAC Gacko BIH eu JN93gd 40 2101 1306 73
1605259 2019-04-19 0105 321 BU Burgas BUL eu KN32rm 2831 1759 74
1607793 2019-04-19 0105 317 TES Tenerife Sur / Reina Sofia CNR af IL18rb 1659 1031 215
1733716 2019-04-19 0105 297 BD Pazardjik / Malak Chardak BUL eu KN22ig 2610 1622 75
1733717 2019-04-19 0105 396 ALE Aleppo SYR as KM86oe 3819 2373 82
1607795 2019-04-19 0100 395 TBS Tabas IRN as LM83kp 5568 3459 76
1622271 2019-04-19 0100 386 PTB Pusztaszabolcs HNG eu JN97id 2152 1337 61
1612900 2019-04-19 0055 370 OTL Bucuresti / Otopeni ROU eu KN34an 2698 1677 69
1612901 2019-04-19 0055 426 BC Bacau ROU eu KN36ll 2768 1720 65
1603171 2019-04-19 0040 353 BT Ali GEO as LN12tc 4143 2574 70
1612899 2019-04-19 0040 267.5 OPW Bucuresti / Otopeni ROU eu KN24xn 2692 1673 69
1612898 2019-04-19 0035 349 OPE Bucuresti / Otopeni ROU eu KN34cn 2712 1685 69
1612897 2019-04-19 0020 428 TGM Targu Mures / Vidrasau ROU eu KN26dk 2564 1593 64
1607794 2019-04-19 0005 355 ARB Ardabil IRN as LM48eh 4657 2894 74
1612896 2019-04-18 2355 397 CV Dubrovnik / Cavtat HRV eu JN92co 2076 1290 75
1612895 2019-04-18 2350 318 OTR Bucuresti / Otopeni ROU eu KN34co 2711 1685 69
1603170 2019-04-18 2330 444 NRD Inowroclaw POL eu JO92eu 2328 1446 45
1605258 2019-04-18 2320 302 NIK Niksic MNE eu JN92ls 40 2136 1327 75
1612894 2019-04-18 2310 391 OKR Bratislava / M.R Stefanik / North SVK eu JN88pf 2000 2075 1289 57
1622270 2019-04-18 2220 337 VRN Vranje SRB eu KN02wn 40 2376 1476 75
1622269 2019-04-18 2110 348 TPL Topola SRB eu KN04id 2275 1414 70
1605257 2019-04-18 2055 308 MOJ Mojkovac MNE eu JN92sw 40 2183 1357 74
1605256 2019-04-18 2040 432 IZD Ohrid / Izdeglavlje MKD eu KN01ji 2300 1429 78
1605255 2019-04-18 2025 297 PEP Prilep MKD eu KN01ri 2355 1463 78
1605254 2019-04-18 1940 295 PT Skopje MKD eu KN01tv 50 2362 1468 77
1699832 2019-04-18 0345 349.5 LPL Liverpool ENG eu IO83pi 1449 900 10
1699833 2019-04-18 0345 355 OBR Beograd / Obrenovac SRB eu KN04bp 50 2230 1386 69
1699834 2019-04-18 0345 359 NA Narsarsuaq (Kitaa) GRL na GP71he 3462 2151 324
1635994 2019-04-18 0225 432 PK Pardubice / Prvek CZE eu JO70va 2035 1265 51
1622268 2019-04-18 0210 338 OA Jonkoping SWE eu JO77bt 2419 1503 30
1622267 2019-04-18 0200 338 MNW Munchen DEU eu JN58wi 25 1701 1057 53
1713150 2019-04-18 0145 344 VAR Varazdin HRV eu JN86eh 1960 1218 63
1713151 2019-04-18 0145 366 KM Kalmar SWE eu JO86cr 2436 1514 34
1713152 2019-04-18 0145 371 BRS Bremsnes for Kristiansund / Kvernberget NOR eu JP33tc 50 2674 1662 15
1713153 2019-04-18 0145 388 BDG Bydgoszcz / Szwederowo POL eu JO93ac 2320 1441 44
1718049 2019-04-18 0145 301.5 TRE Treviso (TV) ITA eu JN65bo 25 1622 1008 63
1718050 2019-04-18 0145 332 RO Tivat MNE eu JN92gk 2104 1307 76
1718051 2019-04-18 0145 356 ANK Ankara / Esenboga TUR as KM69jw 3323 2065 78
1718052 2019-04-18 0145 435 BR Brdjani SRB eu KN03fw 2255 1401 71
1718048 2019-04-18 0130 440 MNI Amasya / Merzifon TUR as KN70st 3526 2191 75
1603169 2019-04-18 0125 353 KIL Kiel / Holtenau DEU eu JO54bi 25 1974 1226 33
1603168 2019-04-18 0120 520 DF Mukhrani GEO as LN21gv 4222 2623 70
1713147 2019-04-18 0120 344 HN Hohn DEU eu JO44uh 25 1951 1212 33
1713148 2019-04-18 0120 363 OEM Kristianstad / Everod SWE eu JO75bx 2284 1419 34
1713149 2019-04-18 0120 398 PEO Stockhlom / Skavsta / Peola SWE eu JO88mt 2620 1628 31
1718039 2019-04-18 0120 352 BRY Yenisehir TUR as KN40tg 3053 1897 78
1718040 2019-04-18 0120 368 BYC Buckeburg DEU eu JO42ng 1769 1099 37
1718041 2019-04-18 0120 378 TA Timisoara / Giarmata ROU eu KN05ou 2323 1443 66
1718042 2019-04-18 0120 383.5 GUL Gulpen HOL eu JO20wt 15 1493 928 36
1718043 2019-04-18 0120 393 RST Rasht IRN as LM47th 4801 2983 75
1718044 2019-04-18 0120 432 GAZ Gaziantep / Oguzeli TUR as KM86rw 3810 2367 81
1718045 2019-04-18 0120 445 TU Tuzla BIH eu JN94fl 50 2097 1303 69
1718046 2019-04-18 0120 457 PRG Persian Gulf IRN as LL67ij 5562 3456 85
1718047 2019-04-18 0120 486 KL Krasnyy Sulin RUS eu LN07bv 3757 2334 61
1733715 2019-04-18 0120 357.5 KG Sarajevo / Butmir / Kobiljaca BIH eu JN93cv 2075 1289 71
1718036 2019-04-18 0110 414 SB Sambek RUS eu KN97vs 3733 2320 61
1718037 2019-04-18 0110 438 B Bratislava / M.R Stefanik / Barka SVK eu JN88od 2066 1284 58
1718038 2019-04-18 0110 438 PE Poprad / Tatry East SVK eu KN09fb 2323 1443 57
1733714 2019-04-18 0110 292 NOV Novara (NO) ITA eu JN45jk 1367 849 61
1617523 2019-04-18 0100 360 BAS UNID XUE xx
1713135 2019-04-18 0055 324 AS Kemi / Tornio FIN eu KP25eq 3401 2113 24
1713136 2019-04-18 0055 324 ON Norrkoping SWE eu JO88eo 2575 1600 31
1713137 2019-04-18 0055 333 LE Vasteraas / Hasslo SWE eu JO89ip 2666 1657 29
1713138 2019-04-18 0055 360 ASK Bergen / Flesland / Askoey NOR eu JP20ok 50 2352 1461 16
1713139 2019-04-18 0055 378 WSN Weser DEU eu JO43ki 1838 1142 34
1713140 2019-04-18 0055 393 TAT Molde / Aro / Tautra NOR eu JP32kq 2616 1625 15
1713141 2019-04-18 0055 396 YG Rygge / Enge NOR eu JO59ji 2415 1500 24
1713142 2019-04-18 0055 399 FM Trollhattan / Vanersborg SWE eu JO68di 2386 1482 27
1713143 2019-04-18 0055 404 Y Kemi-Tornio / Ketolanpera FIN eu KP25ht 3419 2124 24
1713144 2019-04-18 0055 407 KSR Kayseri / Erkilet TUR as KM78ss 3586 2228 79
1713145 2019-04-18 0055 414 HD Sandnessjoen / Stokka / Hestad NOR eu JP66gb 3076 1911 16
1713146 2019-04-18 0055 436 SME Sarmellek / Balaton HNG eu JN86op 2029 1261 62
1622266 2019-04-18 0040 373 KEM Kemi-Tornio / Hirmula FIN eu KP25hu 25 3422 2126 24
1713132 2019-04-18 0035 333 G Kemi-Tornio / Marttala FIN eu KP25gs 3413 2121 24
1713133 2019-04-18 0035 349 JX Vaxjo / Kronoberg SWE eu JO76jx 2387 1483 33
1713134 2019-04-18 0035 388 KRU Kokkola-Pietarsaari / Kruunupyy FIN eu KP13ot 3227 2005 26
1622264 2019-04-18 0030 367 ASM Clermont-Ferrand / Auvergne FRA eu JN15qt 1000 622 51
1622265 2019-04-18 0030 367 VAT Chalon / Vatry FRA eu JN28at 1244 773 39
1603167 2019-04-18 0025 430 LU Batumi GEO as LN01to 3997 2483 72
1635992 2019-04-18 0025 492 TBV Moravska / Trebova CZE eu JN89it 2088 1297 52
1635993 2019-04-18 0025 514 GO Amari Air Base EST eu KO29dg 2988 1857 35
1635991 2019-04-17 2355 448 HLV Holesov CZE eu JN89sh 2127 1321 54
1622263 2019-04-17 2350 421 MF Halmstad SWE eu JO66jp 2271 1411 31
1622262 2019-04-17 2340 409 SG Satenas / Tune SWE eu JO68ij 2406 1495 28
1622261 2019-04-17 2330 366 UTH Orland / Uthaug NOR eu JP43sr 2781 1728 17
1605253 2019-04-17 2305 363 CIG Izmir / Cigli / Kaklic TUR as KM38mm 25 2885 1792 83
1603166 2019-04-17 2220 475 CHN UNID XUU xx
1603165 2019-04-17 2150 490 WAK Vakarel BUL eu KN12un 2525 1569 74
1622260 2019-04-17 2105 319 VAR Stavanger / Sola / Varhaug NOR eu JO28tp 25 2186 1358 19
1603164 2019-04-16 2205 293 ARL Arlit NGR af JK38qs 2774 1724 146
1603163 2019-04-16 0340 281 CA Cartwright NL CAN na GO13lr 1000 3977 2471 308
1607792 2019-04-16 0340 388 LOU Metz / Nancy-Lorraine - Louvigny FRA eu JN38cx 1377 856 43
1607791 2019-04-16 0330 387 GZ Ghanzi BOT af KG08th 7521 4673 151
1713131 2019-04-16 0105 355 RK Reykjavik ISL eu HP84xd 2800 1739 344
1603162 2019-04-16 0040 263 QY Sydney NS CAN na GN06af 500 4264 2650 296
1767601 2019-04-16 0030 485 BF UNID XUF xx
1733713 2019-04-15 2330 258 LU Luanda /4 de Fevereiro AGL af JI61pe 5865 3644 154
1603161 2019-04-15 2325 372 OZN Prins Christian Sund / Kitaa GRL na GP80kb 3299 2050 323
1605252 2019-04-15 2305 392 KF Keflavik ISL eu HP83px 2799 1739 343
1605251 2019-04-15 2250 375 VM Vestmannaeyar ISL eu HP93uj 100 2686 1669 345
1603160 2019-04-15 2210 274 SAL Sal Island / Amilcar Cabral CPV af HK86mq 3000 3084 1916 215
1605250 2019-04-15 2110 312 BOZ Bozhurishte BUL eu KN12os 2483 1543 74
1767600 2019-04-15 2045 380 OT UNID XUU xx
1612893 2019-04-15 2035 285 OSR UNID XUF xx
1767599 2019-04-15 2020 440 HG UNID XUU xx
1603208 2019-04-15 1705 10871.9 S Severomorsk RUS eu
1603206 2019-04-15 1600 10872 C Moscow RUS eu
1603207 2019-04-15 1600 13528.1 A Astrakhan RUS eu
1603203 2019-04-15 0920 10871.7 D Sevastopol UKR eu KN64so 3290 2044 68
1603204 2019-04-15 0920 13527.7 D Sevastopol UKR eu KN64so 3290 2044 68
1603205 2019-04-15 0920 13527.9 S Severomorsk RUS eu KP69qb 3933 2444 23
1605249 2019-04-14 2340 284 GNA Gorna BUL eu KN23td 2675 1662 73
1733712 2019-04-14 2130 420 HB George Best Belfast City Airport NIR eu IO74bo 1558 968 1
1603158 2019-04-14 2125 327 NC8 Hamada NC-8 LBY af JL69km 2159 1341 118
1603159 2019-04-14 2125 357 RJ Tripoli / Mitiga LBY af JM62qv 1978 1229 109
1733710 2019-04-14 2110 304 MOK Bordj Mokhtar ALG af JL01li 2259 1404 159
1733711 2019-04-14 2110 435 IGZ In Guezzam ALG af JK29vn 2624 1630 149
1612892 2019-04-14 2105 432 ZAR Zwara (= 6SH) LBY af JM62aw 1870 1162 111
1603157 2019-04-14 2055 470 WF Wafa LBY af JL58bv 2008 1248 125
1403688 2018-05-02 0445 276 YHR Chevery QC CAN na GO00el 10.1 500 4169 2591 303
1403689 2018-05-02 0445 281 CA Cartwright NL CAN na GO13lr 10.4 1000 3977 2471 308
1403690 2018-05-02 0445 366 YMW Maniwaki QC CAN na FN26ae 10.3 500 5450 3386 300
1403691 2018-05-02 0445 378 HO Hopedale NL CAN na FO95vk 10.4 4182 2598 311
1403692 2018-05-02 0445 396 JC Rigolet NL CAN na GO04se 10.4 500 4070 2529 309
1403686 2018-05-02 0430 350 DF Deer Lake NL CAN na GN19ge 9.8 1000 4030 2504 301
1403687 2018-05-02 0430 360 PN Port-Menier / Ile Anticosti QC CAN na FN79tu 10.4 500 4514 2805 303
1403685 2018-05-02 0425 392 ML Charlevoix QC CAN na FN47uo 10.1 500 4992 3102 301
1403682 2018-05-02 0415 263 QY Sydney NS CAN na GN06af 10.2 500 4264 2650 296
1403683 2018-05-02 0415 356 AY St Anthony NL CAN na GO11wj 10.2 25 3918 2434 304
1403684 2018-05-02 0415 390 JT Stephenville NL CAN na GN08on 10.4 450 4135 2569 300
1403681 2018-05-02 0315 360 HT Horta / Faial Island AZR eu HM58qm 8.2 1888 1173 270
1403675 2018-05-02 0245 342 LL Leirin / Fagernes NOR eu JP41pa 10 2517 1564 20
1403676 2018-05-02 0245 350 DWN Devnya For Varna BUL eu KN33tf 8.2 2836 1762 72
1403677 2018-05-02 0245 372 ODR Kristiansand / Kjevik / Odderoy NOR eu JO38xd 7.5 2210 1373 23
1403678 2018-05-02 0245 375 CHO Chociwel POL eu JO73pl 6.6 2181 1355 41
1403679 2018-05-02 0245 474 BIA Rzeszow / Jasionka POL eu KO10bc 5.3 2468 1533 54
1403680 2018-05-02 0245 490 WAK Vakarel BUL eu KN12un 8.3 2525 1569 74
1403674 2018-05-02 0225 267.5 OPW Bucuresti / Otopeni ROU eu KN24xn 8.1 2692 1673 69
1403673 2018-05-02 0220 444 NRD Inowroclaw POL eu JO92eu 5.5 2328 1446 45
1403670 2018-05-02 0215 428 GC Santa Cruz de Graciosa AZR eu HM59xc 5.3 2000 1824 1133 271
1403671 2018-05-02 0215 428 TGM Targu Mures / Vidrasau ROU eu KN26dk 8.1 2564 1593 64
1403672 2018-05-02 0215 450 PDV Plovdiv BUL eu KN22ka 8.3 2627 1633 76
1403669 2018-05-02 0145 351 PD Ponta Delgada AZR eu HM77dr 8.3 1665 1035 265
1403668 2018-05-02 0130 517 ARD Arad ROU eu KN06ne 8.1 2319 1441 65
1403667 2018-05-02 0125 521 BSW Bucuresti / Baneasa ROU eu KN24xl 8.1 2692 1673 69
1403665 2018-05-02 0045 274 SAL Sal Island / Amilcar Cabral CPV af HK86mq 10.1 3000 3084 1916 215
1403666 2018-05-02 0045 319 VAR Stavanger / Sola / Varhaug NOR eu JO28tp 8.1 25 2186 1358 19
1403664 2018-05-01 0345 372 OZN Prins Christian Sund / Kitaa GRL na GP80kb 8.1 3299 2050 323
1403663 2018-05-01 0215 337 MY Myggenaes FRO eu IP62ec 11.5 2391 1486 358
1403662 2018-04-30 0345 355 RK Reykjavik ISL eu HP84xd 5.4 2800 1739 344
1403661 2018-04-30 0215 392 KF Keflavik ISL eu HP83px 8.3 2799 1739 343
1403660 2018-04-30 0205 375 VM Vestmannaeyar ISL eu HP93uj 3.4 100 2686 1669 345
1271238 2017-08-11 0310 378 HO Hopedale NL CAN na FO95vk 10.4 4182 2598 311
1268616 2017-08-11 0230 396 JC Rigolet NL CAN na GO04se 10.4 500 4070 2529 309
1268615 2017-08-11 0220 263 QY Sydney NS CAN na GN06af 10.2 500 4264 2650 296
1271237 2017-08-11 0220 281 CA Cartwright NL CAN na GO13lr 10.3 1000 3977 2471 308
1268612 2017-08-11 0145 339 TDF Tindouf ALG af IL57wq 15.1 1442 896 185
1268613 2017-08-11 0145 346 TLM Tlemcen / Zenata ALG af IM95ha 20.2 777 483 141
1268614 2017-08-11 0145 383 TIO Timimoun ALG af JL09df 14.8 100 1415 879 151
1271236 2017-08-11 0145 276 YHR Chevery QC CAN na GO00el 10.4 500 4169 2591 303
1268611 2017-08-11 0130 390 JT Stephenville NL CAN na GN08on 10.4 450 4135 2569 300
1268610 2017-08-11 0120 220 BX Blanc Sablon / Lourdes de Blanc Sablon QC CAN na GO11jk 10.6 2000 3993 2481 304
1268608 2017-08-11 0115 350 DF Deer Lake NL CAN na GN19ge 9.8 1000 4030 2504 301
1268609 2017-08-11 0115 391 DDP San Juan / Dorado / Luiz Munoz Marin Intl PR PTR ca FK68tl 10.2 2000 6144 3817 265
1268607 2017-08-11 0025 372 OZN Prins Christian Sund / Kitaa GRL na GP80kb 8 3299 2050 323
1268606 2017-08-11 0015 280 QX Gander NL CAN na GN28px 10.1 1000 3832 2381 300
1271234 2017-08-10 2325 355 RK Reykjavik ISL eu HP84xd 5.4 2800 1739 344
1271235 2017-08-10 2325 392 KF Keflavik ISL eu HP83px 8.3 2799 1739 343
1268605 2017-08-10 2310 375 VM Vestmannaeyar ISL eu HP93uj 3.4 100 2686 1669 345
1268604 2017-08-09 0245 274 TNA Tan Tan MRC af IL48jk 8.1 2000 1414 878 198
1268603 2017-08-08 0445 409 IFN Ifrane MRC af IM73km 8.1 800 497 169
1268602 2017-08-08 0435 371 AZR Inezgane MRC af IM50gi 4.1 1166 725 193
1268601 2017-08-08 0430 293 KSR Erra Chidia / Moulay Ali Cherif MRC af IM71tw 8.1 986 613 167
1268600 2017-08-08 0405 274 SAL Sal Island / Amilcar Cabral CPV af HK86mq 10.3 3000 3084 1916 215
1268599 2017-08-08 0135 255 NUA Casablanca / Mohamed V MRC af IM63ek 4.7 801 498 186
1241999 2017-04-17 0315 460 AS UNID XUE xx 3.8
1244202 2017-04-16 0330 350 DF Deer Lake NL CAN na GN19ge 10.2 1000 4030 2504 301
1244201 2017-04-15 0315 280 QX Gander NL CAN na GN28px 10.2 1000 3832 2381 300
1244200 2017-04-15 0305 356 AY St Anthony NL CAN na GO11wj 10.2 25 3918 2434 304
1241995 2017-04-15 0145 435 GHT Ghat LBY af JL55be 8.3 2317 1440 132
1241996 2017-04-15 0145 435 UAP UNID XUU xx 10
1241997 2017-04-15 0145 336 KHP Khalda Meleiha EGY xx KM30mr 8.3 3217 1999 99
1241998 2017-04-15 0145 392 LAB Labraq / El Beida LBY af KM02xs 10 2686 1669 99
1244199 2017-04-15 0145 355 OBR Beograd / Obrenovac SRB eu KN04bp 8.1 50 2230 1386 69
1246137 2017-04-15 0145 363 CIG Izmir / Cigli / Kaklic TUR as KM38mm 8.2 25 2885 1792 83
1246138 2017-04-15 0145 403 KEK Kerkyra / Ioannis Kapodistrias GRC eu JM99wo 5.6 15 2255 1401 84
1244198 2017-04-15 0130 346 TLM Tlemcen / Zenata ALG af IM95ha 20.3 777 483 141
1241994 2017-04-15 0125 429 KDR Kadra LBY af JM62ti 8.4 2029 1261 110
1244197 2017-04-15 0115 355 RK Reykjavik ISL eu HP84xd 5.4 2800 1739 344
1241992 2017-04-15 0110 392 KF Keflavik ISL eu HP83px 8.2 2799 1739 343
1241993 2017-04-15 0110 310 VA Amal V12 LBY af KL09ml 4.4 2796 1738 107
1244196 2017-04-15 0110 390 JT Stephenville NL CAN na GN08on 10.3 450 4135 2569 300
1241991 2017-04-15 0105 470 WF Wafa LBY af JL58bv 10 2008 1248 125
1244195 2017-04-15 0105 375 VM Vestmannaeyar ISL eu HP93uj 3.4 100 2686 1669 345
1244194 2017-04-15 0100 372 OZN Prins Christian Sund / Kitaa GRL na GP80kb 8 3299 2050 323
1241990 2017-04-15 0045 330 OA Samah / Warehouse 59 LBY af JL98mc 4.5 2727 1694 112
1246136 2017-04-15 0045 321 BU Burgas BUL eu KN32rm 8.2 2831 1759 74
1241989 2017-04-15 0030 357 RJ Tripoli / Mitiga LBY af JM62qv 8.3 1978 1229 109
1244192 2017-04-15 0005 304 MOK Bordj Mokhtar ALG af JL01li 6.2 2259 1404 159
1244193 2017-04-15 0005 435 IGZ In Guezzam ALG af JK29vn 20.2 2624 1630 149
1246135 2017-04-15 0005 305 GS Sarir / A.G Concession 65 LBY af KL17gp 10.4 3033 1885 109
1241988 2017-04-14 2330 327 NC8 Hamada NC-8 LBY af JL69km 6.7 2159 1341 118
1244191 2017-04-14 2330 358 ELO El Oued / Guemar ALG af JM33jm 6.5 25 1431 889 119
1241987 2017-04-14 2320 311 LMA Lima / Bruggen DEU eu JO31ei 10 25 1561 970 35
1244189 2017-04-14 2315 383 TIO Timimoun ALG af JL09df 14.8 100 1415 879 151
1244190 2017-04-14 2315 432 HMB Hammam Bou Hadjar for Oran ALG af IM95mi 19.8 25 771 479 137
1244187 2017-04-14 2130 320 BBS Beni Abbes ALG af IM80va 6.7 1245 774 159
1244188 2017-04-14 2130 370 OTL Bucuresti / Otopeni ROU eu KN34an 8.1 2698 1677 69
1244184 2017-04-14 0415 276 YHR Chevery QC CAN na GO00el 10.4 500 4169 2591 303
1244185 2017-04-14 0415 281 CA Cartwright NL CAN na GO13lr 10.3 1000 3977 2471 308
1244186 2017-04-14 0415 340 YY Mont Joli QC CAN na FN58un 10.3 500 4821 2996 302
1244183 2017-04-14 0345 366 YMW Maniwaki QC CAN na FN26ae 10.3 500 5450 3386 300
1244182 2017-04-14 0330 366 UTH Orland / Uthaug NOR eu JP43sr 8 2781 1728 17
1244181 2017-04-14 0315 360 PN Port-Menier / Ile Anticosti QC CAN na FN79tu 10.3 500 4514 2805 303
1244180 2017-04-14 0305 392 ML Charlevoix QC CAN na FN47uo 10.2 500 4992 3102 301
1244179 2017-04-13 2145 332 TLF Toulouse / Francazal FRA eu JN03oo 10.2 733 455 60
1241986 2017-04-11 2120 500 MCR UNID XUF xx 10.4
1244178 2017-04-11 2110 293 ARL Arlit NGR af JK38qs 20.4 2774 1724 146
1244177 2017-04-11 0110 220 BX Blanc Sablon / Lourdes de Blanc Sablon QC CAN na GO11jk 10.5 2000 3993 2481 304
1152950 2016-10-17 0340 339 TDF Tindouf ALG af IL57wq 15.5 1442 896 185
1159410 2016-10-17 0245 312 BOZ Bozhurishte BUL eu KN12os 8.2 2483 1543 74
1159411 2016-10-17 0245 350 DWN Devnya For Varna BUL eu KN33tf 8.2 2836 1762 72
1159412 2016-10-17 0245 378 UX Hall Beach NU CAN na EP98is 9.7 400 5245 3259 331
1159413 2016-10-17 0245 450 PDV Plovdiv BUL eu KN22ka 8.2 2627 1633 76
1159408 2016-10-17 0230 321 STM Scilly Isles / St Mary ENG eu IN69uv 8.1 1034 642 1
1159409 2016-10-17 0230 378 TRI Split / Trogir HRV eu JN83cl 8.6 50 1913 1189 72
1159407 2016-10-17 0225 490 WAK Vakarel BUL eu KN12un 8.3 2525 1569 74
1152949 2016-10-17 0220 350 DF Deer Lake NL CAN na GN19ge 10.2 1000 4030 2504 301
1159406 2016-10-17 0200 284 GNA Gorna BUL eu KN23td 8.4 2675 1662 73
1152947 2016-10-17 0145 363 CIG Izmir / Cigli / Kaklic TUR as KM38mm 8.3 25 2885 1792 83
1152948 2016-10-17 0145 392 LAB Labraq / El Beida LBY af KM02xs 10 2686 1669 99
1159404 2016-10-17 0145 267.5 OPW Bucuresti / Otopeni ROU eu KN24xn 8.1 2692 1673 69
1159405 2016-10-17 0145 343 YVL Yeovil / Westland ENG eu IO80qw 7.9 1191 740 13
1159401 2016-10-17 0130 328 PHA Pafos CYP as KM64fr 10.2 3479 2162 88
1159402 2016-10-17 0130 356 ANK Ankara / Esenboga TUR as KM69jw 5.5 3323 2065 78
1159403 2016-10-17 0130 416 POZ Beograd / Pozarevac SRB eu KN04no 9.8 40 2309 1435 69
1152946 2016-10-17 0125 315 FEZ Fes / Saiss MRC af IM73mv 4.4 762 473 167
1159397 2016-10-17 0125 220 BX Blanc Sablon / Lourdes de Blanc Sablon QC CAN na GO11jk 10.5 2000 3993 2481 304
1159398 2016-10-17 0125 349 OPE Bucuresti / Otopeni ROU eu KN34cn 8.1 2712 1685 69
1159399 2016-10-17 0125 428 TGM Targu Mures / Vidrasau ROU eu KN26dk 8.1 2564 1593 64
1159400 2016-10-17 0125 432 IZD Ohrid / Izdeglavlje MKD eu KN01ji 14.2 2300 1429 78
1152945 2016-10-17 0120 470 WF Wafa LBY af JL58bv 10 2008 1248 125
1159395 2016-10-17 0120 420 BFK UNID XUU xx 6.6
1159396 2016-10-17 0120 428 GC Santa Cruz de Graciosa AZR eu HM59xc 5.2 2000 1824 1133 271
1159394 2016-10-17 0115 391 DDP San Juan / Dorado / Luiz Munoz Marin Intl PR PTR ca FK68tl 10.2 2000 6144 3817 265
1159393 2016-10-17 0105 274 TNA Tan Tan MRC af IL48jk 7.8 2000 1414 878 198
1152943 2016-10-17 0045 354 NG Nimes / Garons FRA eu JN23eu 10.6 25 980 609 64
1152944 2016-10-17 0045 355.5 PAL Palermo (PA) SCY eu JM68oa 10 1733 1077 93
1152942 2016-10-17 0030 435 GHT Ghat LBY af JL55be 8.3 2317 1440 132
1152941 2016-10-17 0025 357 RJ Tripoli / Mitiga LBY af JM62qv 8.3 1978 1229 109
1152939 2016-10-17 0015 293 ARL Arlit NGR af JK38qs 20.4 2774 1724 146
1152940 2016-10-17 0015 372 OZN Prins Christian Sund / Kitaa GRL na GP80kb 8.1 3299 2050 323
1152938 2016-10-17 0010 304 MOK Bordj Mokhtar ALG af JL01li 6.2 2259 1404 159
1152936 2016-10-16 2345 390 VAL Valjevo SRB eu JN94wh 10 2209 1373 70
1152937 2016-10-16 2345 393 BX Mende / Brenoux FRA eu JN14rn 21.3 941 584 58
1159392 2016-10-16 2330 375 EKO Ekofisk L XOE iw JO16on 5.8 1914 1189 18
1152935 2016-10-16 2325 275 CAE Ben Slimane MRC af IM63ko 9 779 484 182
1159391 2016-10-16 2325 370 OTL Bucuresti / Otopeni ROU eu KN34an 8.1 2698 1677 69
1159390 2016-10-16 2245 355 ARB Ardabil IRN as LM48eh 10.1 4657 2894 74
1152934 2016-10-16 2240 327 NC8 Hamada NC-8 LBY af JL69km 6.7 2159 1341 118
1159389 2016-10-16 2140 293 KSR Erra Chidia / Moulay Ali Cherif MRC af IM71tw 9.6 986 613 167
1159388 2016-10-16 2115 295 PT Skopje MKD eu KN01tv 9.9 50 2362 1468 77
1138668 2016-09-14 1210 308 VT Vitoria ESP eu IN82ot 10.1 407 253 51
1138669 2016-09-14 1210 335 TON Torralba de Aragon ESP eu IN91rw 7.9 300 536 333 71
1138662 2016-09-14 1205 285 CVT Madrid / Cuatro Vientos ESP eu IN80ci 6 30 248 154 95
1138663 2016-09-14 1205 285 GR Granada ESP eu IM87be 11.3 452 281 146
1138664 2016-09-14 1205 332 EAL Almagro ESP eu IM88cw 5 25 311 193 125
1138665 2016-09-14 1205 332 FAR Faro POR eu IM67aa 7.4 413 257 195
1138666 2016-09-14 1205 389 CP Lisboa / Caparica POR eu IM58jp 7 305 190 225
1138667 2016-09-14 1205 389 ZRZ Zaragoza ESP eu IN91jr 13.6 300 477 296 72
1138656 2016-09-14 1200 319 ECV Colmenar Viejo ESP eu IN80cq 5.8 50 246 153 86
1138657 2016-09-14 1200 327 POR Porto POR eu IN51pi 8.4 187 116 297
1138658 2016-09-14 1200 404 LRD Lerida ESP eu JN01hn 10.1 250 624 387 77
1138659 2016-09-14 1200 421 GE Madrid / Grinon ESP eu IN80be 8.1 244 152 100
1138660 2016-09-14 1200 433 JER Jerez ESP eu IM66xu 8.2 50 421 262 171
1138661 2016-09-14 1200 433 VON Vigo ESP eu IN52qe 17.4 200 238 148 318
1138655 2016-09-14 1155 359 AL Salamanca ESP eu IN71ga 9.1 115 71 65
1138654 2016-09-14 1150 382 LAR Arruda POR eu IM58lx 8.1 269 167 228
1135471 2016-09-14 0620 263 QY Sydney NS CAN na GN06af 10.2 500 4264 2650 296
1135469 2016-09-14 0545 280 QX Gander NL CAN na GN28px 10.1 1000 3832 2381 300
1135470 2016-09-14 0545 356 AY St Anthony NL CAN na GO11wj 10.2 25 3918 2434 304
1135468 2016-09-14 0520 391 DDP San Juan / Dorado / Luiz Munoz Marin Intl PR PTR ca FK68tl 10.2 2000 6144 3817 265
1135467 2016-09-14 0515 276 YHR Chevery QC CAN na GO00el 10.2 500 4169 2591 303
1135466 2016-09-14 0445 350 DF Deer Lake NL CAN na GN19ge 10.2 1000 4030 2504 301
1135465 2016-09-14 0345 396 JC Rigolet NL CAN na GO04se 10.4 500 4070 2529 309
1073836 2016-03-27 0145 351 OV Visby SWE eu JO97er 5.1 2607 1620 34
1073837 2016-03-27 0145 358 LT Le Touquet / Paris-Plage FRA eu JO00tm 10.3 1277 794 27
1073838 2016-03-27 0145 370 BSV Besancon / La Veze FRA eu JN37cg 10.2 1270 789 50
1073839 2016-03-27 0145 378 RSY Stavanger / Sola / Rennesoy NOR eu JO29td 9 2235 1388 18
1073840 2016-03-27 0145 378 RJ Roberval QC CAN na FN38un 10.2 500 5106 3173 302
1073841 2016-03-27 0145 409 SG Satenas / Tune SWE eu JO68ij 4.4 2406 1495 28
1073842 2016-03-27 0145 421 MF Halmstad SWE eu JO66jp 4.5 2271 1411 31
1073835 2016-03-27 0140 319 VAR Stavanger / Sola / Varhaug NOR eu JO28tp 8 25 2186 1358 19
1073834 2016-03-27 0130 379 REK Reksten NOR eu JP21kn 9 100 2458 1527 14
1073832 2016-03-27 0120 378 HO Hopedale NL CAN na FO95vk 10.3 4182 2598 311
1073833 2016-03-27 0120 392 KF Keflavik ISL eu HP83px 8.2 2799 1739 343
1080924 2016-03-26 2345 355 ARB Ardabil IRN as LM48eh 10.1 4657 2894 74
1069490 2016-03-26 0345 216 CLB Wilmington / Carolina Beach NC USA na FM14ac 10.2 6166 3831 287
1069491 2016-03-26 0345 366 YMW Maniwaki QC CAN na FN26ae 10.1 500 5450 3386 300
1080923 2016-03-26 0345 323 WPL Welshpool WLS eu IO82kp 6.7 1366 849 10
1080922 2016-03-26 0330 332 OY Belfast / Aldergrove NIR eu IO64wq 10.8 1566 973 1
1080921 2016-03-26 0320 332 YFM La Grande 4 QC CAN na FO33dr 10.1 2000 5065 3147 310
1069489 2016-03-25 0325 281 CA Cartwright NL CAN na GO13lr 10.3 1000 3977 2471 308
1069488 2016-03-25 0320 340 YY Mont Joli QC CAN na FN58un 10.3 500 4821 2996 302
1069487 2016-03-25 0310 372 ODR Kristiansand / Kjevik / Odderoy NOR eu JO38xd 8.4 2210 1373 23
1080917 2016-03-25 0145 323 UWP Argentia NL CAN na GN37ah 9.9 1000 3794 2358 297
1080918 2016-03-25 0145 362 JAN Jan Mayen JMY eu IQ50rx 7.5 50 3379 2099 358
1080919 2016-03-25 0145 404 VNG Vangsnes NOR eu JP31hd 8 2457 1527 17
1080920 2016-03-25 0145 404 Y Kemi-Tornio / Ketolanpera FIN eu KP25ht 4.2 3419 2124 24
1069486 2016-03-25 0125 327 NC8 Hamada NC-8 LBY af JL69km 6.7 2159 1341 118
1069485 2016-03-25 0110 366 UTH Orland / Uthaug NOR eu JP43sr 8 2781 1728 17
1069484 2016-03-24 0015 435 SR UNID XUF xx 5.1
1068368 2016-03-23 0115 392 ML Charlevoix QC CAN na FN47uo 10.2 500 4992 3102 301
1068365 2016-03-23 0045 390 JT Stephenville NL CAN na GN08on 10.4 450 4135 2569 300
1068366 2016-03-23 0045 280 QX Gander NL CAN na GN28px 10.2 1000 3832 2381 300
1068367 2016-03-23 0045 263 QY Sydney NS CAN na GN06af 10.2 500 4264 2650 296
1068364 2016-03-23 0040 276 YHR Chevery QC CAN na GO00el 10.1 500 4169 2591 303
1068363 2016-03-23 0030 360 PN Port-Menier / Ile Anticosti QC CAN na FN79tu 10.3 500 4514 2805 303
1068362 2016-03-23 0015 356 AY St Anthony NL CAN na GO11wj 10.2 25 3918 2434 304
1068360 2016-03-23 0010 350 DF Deer Lake NL CAN na GN19ge 9.7 1000 4030 2504 301
1068361 2016-03-23 0010 220 BX Blanc Sablon / Lourdes de Blanc Sablon QC CAN na GO11jk 10.5 2000 3993 2481 304
1068359 2016-03-23 0005 372 OZN Prins Christian Sund / Kitaa GRL na GP80kb 8.1 3299 2050 323
1031694 2016-01-05 0245 351 PD Ponta Delgada AZR eu HM77dr 8.3 1665 1035 265
1031693 2016-01-05 0220 362 GND 'Port Salines' Grand Anse GRD ca FK92ca 10.4 150 6216 3862 255
1029182 2016-01-03 0345 300 NOR Fernando de Noronha FDN sa HI36sd 7.1 5595 3476 214
1029183 2016-01-03 0345 380 OLD Olinda BRA sa HI21mx 7.3 6132 3810 214
1029184 2016-01-03 0345 320 VL Pula / Valtura HRV eu JN64wv 5.1 1742 1082 67
1029179 2016-01-03 0340 380 FIL Horta / Faial Island AZR eu HM58pm 13.6 1895 1177 270
1029180 2016-01-03 0340 320 JPS Joao Pessoa (PB) BRA sa HI22mu 7.6 100 6045 3756 215
1029181 2016-01-03 0340 322 MIO Montijo POR eu IM58lr 9.1 289 179 224
1034887 2016-01-03 0225 275 MSS Mossoro (RN) BRA sa HI14ht 7.2 5975 3712 219
1034886 2016-01-03 0215 325 PAF Paulo Afonso BRA sa HI00vo 6.9 6430 3995 217
1031692 2016-01-02 0345 350 STM Santarem (PA) BRA sa GI27on 7.1 6824 4240 237
1034885 2016-01-02 0345 220 TUI Tucurui (PA) BRA sa GI56df 7 1000 6588 4093 232
1029178 2016-01-02 0320 280 QX Gander NL CAN na GN28px 10.1 1000 3832 2381 300
1029177 2016-01-02 0315 240 TIR Tirios (PA) BRA sa GJ22af 7 6519 4051 242
1029176 2016-01-02 0245 216 CLB Wilmington / Carolina Beach NC USA na FM14ac 10.3 6166 3831 287
1031688 2016-01-02 0245 445 AAW Misrata LBY af JM72mh 8.5 2145 1333 108
1031689 2016-01-02 0245 363 CIG Izmir / Cigli / Kaklic TUR as KM38mm 8.3 25 2885 1792 83
1031690 2016-01-02 0245 291 KZN Kozani / Filippos GRC eu KN00wg 9.2 2408 1496 81
1031691 2016-01-02 0245 470 WF Wafa LBY af JL58bv 10 2008 1248 125
1031686 2016-01-02 0225 315 FEZ Fes / Saiss MRC af IM73mv 4.4 762 473 167
1031687 2016-01-02 0225 435 GHT Ghat LBY af JL55be 8.3 2317 1440 132
1029175 2016-01-02 0210 220 BX Blanc Sablon / Lourdes de Blanc Sablon QC CAN na GO11jk 10.5 2000 3993 2481 304
1031685 2016-01-02 0210 470 BK UNID XUF xx 8.2
1031684 2016-01-02 0145 385.5 KDN Tunis / Carthage / Khereddine TUN af JM56dt 14.5 1531 951 100
1042695 2016-01-02 0015 301 TW Tripoli / Ghararah LBY af JM62mp 10 1966 1221 110
1042694 2016-01-01 2345 428 TGM Targu Mures / Vidrasau ROU eu KN26dk 8 2564 1593 64
1042693 2016-01-01 2320 386 LNE Milano / Linate (MI) ITA eu JN45pi 4.7 1402 871 62
1035995 2016-01-01 2245 312 BOZ Bozhurishte BUL eu KN12os 8.1 2483 1543 74
1035996 2016-01-01 2245 321 BU Burgas BUL eu KN32rm 8.3 2831 1759 74
1035997 2016-01-01 2245 414 GR Dubrovnik / Gruda HRV eu JN92dm 8 2083 1294 75
1035998 2016-01-01 2245 415 ON Oran / Es Senia ALG af IM95tr 3.8 774 481 132
1035999 2016-01-01 2245 416 MAR Algiers / Houari Boumedienne ALG af JM16jq 10.1 932 579 114
1042691 2016-01-01 2245 318 OTR Bucuresti / Otopeni ROU eu KN34co 8 2711 1685 69
1042692 2016-01-01 2245 334 OXY Alpha 103 LBY af KL09ja 7.4 2805 1743 108
1035994 2016-01-01 2235 423 BJA Bejaia / Soummam ALG af JM26mq 19.6 40 1108 689 109
1035992 2016-01-01 2230 350 DWN Devnya For Varna BUL eu KN33tf 8.2 2836 1762 72
1035993 2016-01-01 2230 430 TA UNID XUF xx 10
1042689 2016-01-01 2230 316 CAL Cagliari / Elmas SAR eu JM49mf 10 1350 839 91
1042690 2016-01-01 2230 318 MAD Funchal MDR af IM12pr 7.9 2000 1248 776 228
1035989 2016-01-01 2220 407 BCR Bechar ALG af IM81vq 16.2 1070 665 156
1035990 2016-01-01 2220 424 GRS Ghriss ALG af JM05bf 14.1 25 846 526 132
1035991 2016-01-01 2220 450 PDV Plovdiv BUL eu KN22ka 8.2 2627 1633 76
1035986 2016-01-01 2215 284 GNA Gorna BUL eu KN23td 8.4 2675 1662 73
1035987 2016-01-01 2215 334 SAL Salon De Provence FRA eu JN23no 19.5 25 1030 640 67
1035988 2016-01-01 2215 490 WAK Vakarel BUL eu KN12un 8.4 2525 1569 74
1042688 2016-01-01 2215 343 MS Marseille / Provence FRA eu JN23pj 10.3 25 1038 645 68
1035983 2016-01-01 2210 370 OTL Bucuresti / Otopeni ROU eu KN34an 8.1 2698 1677 69
1035984 2016-01-01 2210 397 CHE Cherchell ALG af JM16co 7.7 40 893 555 117
1035985 2016-01-01 2210 490 TFR Tafaroui ALG af IM95rk 8.4 788 490 134
1042687 2016-01-01 2210 328 PHA Pafos CYP as KM64fr 10.2 3479 2162 88
1035982 2016-01-01 2205 349 OPE Bucuresti / Otopeni ROU eu KN34cn 8.1 2712 1685 69
1029174 2016-01-01 0245 353 BNA Beni Amrane ALG af JM16tp 6.1 100 999 621 112
1029173 2016-01-01 0235 331 SC Santa Cruz Das Flores AZR eu HM49lg 7.7 2073 1288 273
1029171 2016-01-01 0225 331 HRM Hassi R.Mel / Tilrempt / Oued Irarra ALG af JM12pw 8.5 1231 765 130
1029172 2016-01-01 0225 265 OO Oran / Es Senia ALG af IM95tr 12.8 774 481 132
1029170 2016-01-01 0220 283 BIS Biskra ALG af JM24ut 21.7 1266 787 116
1035981 2016-01-01 0215 340 OCT October EGY af KL59jt 8.4 3580 2225 97
1029169 2016-01-01 0205 356.5 OU Ouargla ALG af JM21rw 17.5 1453 903 127
1042686 2016-01-01 0030 356 AY St Anthony NL CAN na GO11wj 10.1 25 3918 2434 304
1042685 2016-01-01 0015 390 JT Stephenville NL CAN na GN08on 10.3 450 4135 2569 300
1042684 2016-01-01 0010 290 TR Tirana / Rinas ALB eu JN91uk 10 2209 1373 78
1042683 2016-01-01 0005 350 DF Deer Lake NL CAN na GN19ge 9.7 1000 4030 2504 301
1026352 2015-12-31 0220 273 DOM Marigot DMA ca FK95in 8.1 100 5920 3678 258
1026349 2015-12-31 0210 275 MS Monastir / Msaken TUN af JM55hr 4.3 1606 998 104
1026350 2015-12-31 0210 263 QY Sydney NS CAN na GN06af 10.2 500 4264 2650 296
1026351 2015-12-31 0210 268 ZAR Zarzaitine ALG af JL48tb 8.3 2041 1268 128
1026348 2015-12-31 0205 276 YHR Chevery QC CAN na GO00el 10.1 500 4169 2591 303
1026347 2015-12-31 0145 305 BNE Hewanorra LCA ca FK93mr 8.1 100 6023 3742 256
1034883 2015-12-31 0145 385 PTP Pointe a Pitre GDL ca FK96eg 10.3 5898 3664 259
1034884 2015-12-31 0145 360 JAC Jacare-a-Canga (PA) BRA sa GI13cs 7 7361 4574 237
1026344 2015-12-31 0120 329 FOF Fort De France MRT ca FK94lo 10.2 5967 3708 257
1026345 2015-12-31 0120 360 HT Horta / Faial Island AZR eu HM58qm 8.2 1888 1173 270
1026346 2015-12-31 0120 369 ZDX Coolidge Saint Johns ATG ca FK97cd 10.4 700 5851 3635 260
1026342 2015-12-31 0115 323 TAB Crown Point TRD ca FK91nd 8.4 6206 3856 254
1026343 2015-12-31 0115 376 ZIN Matthew Town / Great Inagua Island BAH ca FL30dx 8.3 400 6597 4099 272
1026340 2015-12-31 0110 362 EBT Betera / Valencia ESP eu IM99so 4.7 543 337 99
1026341 2015-12-31 0110 435 IGZ In Guezzam ALG af JK29vn 20.1 2624 1630 149
1034882 2015-12-31 0110 515 RG UNID XUU xx 8.3
1026339 2015-12-30 0415 340 GHA Ghardaia ALG af JM12vi 8.1 1311 814 131
1026338 2015-12-30 0410 300 CEU Ceuta CEU af IM75iv 5.3 538 334 166
1026337 2015-12-30 0345 358 ELO El Oued / Guemar ALG af JM33jm 6.8 25 1431 889 119
1026335 2015-12-30 0330 359 AL Salamanca ESP eu IN71ga 9.1 115 71 65
1026336 2015-12-30 0330 372 OZN Prins Christian Sund / Kitaa GRL na GP80kb 8.1 3299 2050 323
1026334 2015-12-30 0325 341 GP Lajes / Vila Da Praia Da Vitoria / Terceira Island AZR eu HM68ks 8.2 1755 1090 269
1026333 2015-12-30 0320 304 MOK Bordj Mokhtar ALG af JL01li 6.2 2259 1404 159
1026331 2015-12-30 0315 293 ARL Arlit NGR af JK38qs 20.4 2774 1724 146
1026332 2015-12-30 0315 346 TLM Tlemcen / Zenata ALG af IM95ha 20.2 777 483 141
1026330 2015-12-30 0310 357 RJ Tripoli / Mitiga LBY af JM62qv 8.3 1978 1229 109
1022115 2015-12-29 0020 255 NUA Casablanca / Mohamed V MRC af IM63ek 4.6 801 498 186
1026329 2015-12-28 2320 320 BBS Beni Abbes ALG af IM80va 6.8 1245 774 159
1026328 2015-12-28 2315 342 OA Algiers / Houari Boumedienne ALG af JM16qs 8.7 973 604 112
1022114 2015-12-28 2245 339 TDF Tindouf ALG af IL57wq 16 1442 896 185
1022113 2015-12-28 0235 282 NSR Casablanca / Mohamed V MRC af IM63fg 3.4 819 509 185
1022112 2015-12-28 0225 293 KSR Erra Chidia / Moulay Ali Cherif MRC af IM71tw 3.3 986 613 167
1022111 2015-12-28 0215 374 TAN Tanger / Ibn Batouta MRC af IM75cr 2.9 548 340 171
1022106 2015-12-28 0210 332 SBI Rabat / Sale MRC af IM64qe 3.5 713 443 179
1022107 2015-12-28 0210 345 CSD Daouarat MRC af IM52xw 10.2 861 535 188
1022108 2015-12-28 0210 401 ALU Al Hoceima / Cherif Al Idrissi MRC af IM85be 10 651 405 156
1022109 2015-12-28 0210 413 SAK Casablanca / Mohamed V MRC af IM63dm 9.9 793 492 186
1022110 2015-12-28 0210 391 DDP San Juan / Dorado / Luiz Munoz Marin Intl PR PTR ca FK68tl 10.1 2000 6144 3817 265
1022105 2015-12-28 0205 396 ALS Agadir / Al Massira MRC af IM50ih 10.4 1168 726 192
1022104 2015-12-28 0030 267 CNZ Marrakech / Menara MRC af IM61ao 4.6 1007 626 186
1022103 2015-12-27 2205 275 CAE Ben Slimane MRC af IM63ko 9 779 484 182
1022102 2015-12-27 2200 274 SAL Sal Island / Amilcar Cabral CPV af HK86mq 10.3 3000 3084 1916 215
1022101 2015-12-27 0400 297 NH Nouakchott MTN af IK28ab 19 50 2658 1652 202
1022100 2015-12-27 0030 317 TES Tenerife Sur / Reina Sofia CNR af IL18rb 16.5 1659 1031 215
1022099 2015-12-27 0015 397 FV Fuerteventura CNR af IL38bj 14.3 20 1507 936 207
1022098 2015-12-27 0010 310 LZ Lanzarote CNR af IL38ew 12.4 300 1442 896 208
1022097 2015-12-27 0005 420 FJA Zagora MRC af IM70bg 9.9 1151 715 175
1022096 2015-12-26 2125 376 HIE Valverde / El Hierro CNR af IL17bt 4.4 1751 1088 219
1022095 2015-12-26 2000 365 VR Gran Canaria / Las Palmas CNR af IL27gu 7.6 200 1628 1011 212
1022094 2015-12-26 1900 308 VT Vitoria ESP eu IN82ot 10 407 253 51
1022093 2015-12-26 1840 389 BX La Palma CNR af IL18co 5 150 1673 1039 220
1022092 2015-12-26 1830 338 PST Porto Santo / Ilheu De Baixo MDR af IM13tb 7 2000 1200 746 228